sensor_id;sensor_type;location;lat;lon;timestamp;P1;durP1;ratioP1;P2;durP2;ratioP2
25083;SDS011;13075;55.682;37.564;2023-02-11T00:02:01;30.45;;;12.30;;
25083;SDS011;13075;55.682;37.564;2023-02-11T00:04:29;30.52;;;10.93;;
25083;SDS011;13075;55.682;37.564;2023-02-11T00:06:54;23.98;;;10.55;;
25083;SDS011;13075;55.682;37.564;2023-02-11T00:09:20;27.70;;;11.95;;
25083;SDS011;13075;55.682;37.564;2023-02-11T00:11:45;24.38;;;10.55;;
25083;SDS011;13075;55.682;37.564;2023-02-11T00:14:11;33.13;;;11.85;;
25083;SDS011;13075;55.682;37.564;2023-02-11T00:16:37;30.35;;;11.10;;
25083;SDS011;13075;55.682;37.564;2023-02-11T00:19:02;17.80;;;9.20;;
25083;SDS011;13075;55.682;37.564;2023-02-11T00:21:30;23.63;;;9.98;;
25083;SDS011;13075;55.682;37.564;2023-02-11T00:23:56;31.13;;;11.10;;
25083;SDS011;13075;55.682;37.564;2023-02-11T00:26:25;22.48;;;11.25;;
25083;SDS011;13075;55.682;37.564;2023-02-11T00:28:52;22.98;;;11.15;;
25083;SDS011;13075;55.682;37.564;2023-02-11T00:31:19;20.98;;;10.77;;
25083;SDS011;13075;55.682;37.564;2023-02-11T00:33:46;27.23;;;10.90;;
25083;SDS011;13075;55.682;37.564;2023-02-11T00:36:16;21.17;;;10.05;;
25083;SDS011;13075;55.682;37.564;2023-02-11T00:38:45;19.52;;;9.95;;
25083;SDS011;13075;55.682;37.564;2023-02-11T00:41:12;24.10;;;9.80;;
25083;SDS011;13075;55.682;37.564;2023-02-11T00:43:39;23.40;;;10.43;;
25083;SDS011;13075;55.682;37.564;2023-02-11T00:46:05;27.63;;;9.60;;
25083;SDS011;13075;55.682;37.564;2023-02-11T00:48:31;24.40;;;9.98;;
25083;SDS011;13075;55.682;37.564;2023-02-11T00:50:59;26.02;;;9.57;;
25083;SDS011;13075;55.682;37.564;2023-02-11T00:53:25;19.55;;;9.70;;
25083;SDS011;13075;55.682;37.564;2023-02-11T00:55:51;22.50;;;8.40;;
25083;SDS011;13075;55.682;37.564;2023-02-11T00:58:16;24.48;;;9.63;;
25083;SDS011;13075;55.682;37.564;2023-02-11T01:03:20;26.38;;;9.80;;
25083;SDS011;13075;55.682;37.564;2023-02-11T01:05:46;20.98;;;8.68;;
25083;SDS011;13075;55.682;37.564;2023-02-11T01:08:12;20.85;;;8.65;;
25083;SDS011;13075;55.682;37.564;2023-02-11T01:10:38;21.90;;;9.18;;
25083;SDS011;13075;55.682;37.564;2023-02-11T01:13:03;15.35;;;7.38;;
25083;SDS011;13075;55.682;37.564;2023-02-11T01:15:30;23.25;;;7.97;;
25083;SDS011;13075;55.682;37.564;2023-02-11T01:17:57;14.00;;;7.90;;
25083;SDS011;13075;55.682;37.564;2023-02-11T01:20:24;19.75;;;8.52;;
25083;SDS011;13075;55.682;37.564;2023-02-11T01:22:51;17.98;;;8.52;;
25083;SDS011;13075;55.682;37.564;2023-02-11T01:25:17;27.75;;;8.32;;
25083;SDS011;13075;55.682;37.564;2023-02-11T01:27:43;21.45;;;9.35;;
25083;SDS011;13075;55.682;37.564;2023-02-11T01:30:10;18.10;;;7.38;;
25083;SDS011;13075;55.682;37.564;2023-02-11T01:32:38;15.52;;;7.43;;
25083;SDS011;13075;55.682;37.564;2023-02-11T01:35:04;28.65;;;8.40;;
25083;SDS011;13075;55.682;37.564;2023-02-11T01:37:33;18.45;;;8.35;;
25083;SDS011;13075;55.682;37.564;2023-02-11T01:40:09;16.92;;;8.68;;
25083;SDS011;13075;55.682;37.564;2023-02-11T01:42:37;21.83;;;8.52;;
25083;SDS011;13075;55.682;37.564;2023-02-11T01:48:06;21.25;;;7.95;;
25083;SDS011;13075;55.682;37.564;2023-02-11T01:50:33;18.10;;;7.20;;
25083;SDS011;13075;55.682;37.564;2023-02-11T01:53:00;23.27;;;7.88;;
25083;SDS011;13075;55.682;37.564;2023-02-11T01:55:46;18.50;;;6.70;;
25083;SDS011;13075;55.682;37.564;2023-02-11T01:58:30;19.73;;;6.50;;
25083;SDS011;13075;55.682;37.564;2023-02-11T02:01:01;19.58;;;7.55;;
25083;SDS011;13075;55.682;37.564;2023-02-11T02:03:28;12.18;;;6.05;;
25083;SDS011;13075;55.682;37.564;2023-02-11T02:06:18;11.18;;;5.25;;
25083;SDS011;13075;55.682;37.564;2023-02-11T02:08:55;12.38;;;5.63;;
25083;SDS011;13075;55.682;37.564;2023-02-11T02:11:28;13.25;;;6.05;;
25083;SDS011;13075;55.682;37.564;2023-02-11T02:13:54;12.38;;;4.15;;
25083;SDS011;13075;55.682;37.564;2023-02-11T02:16:20;10.93;;;5.72;;
25083;SDS011;13075;55.682;37.564;2023-02-11T02:27:24;14.25;;;7.63;;
25083;SDS011;13075;55.682;37.564;2023-02-11T02:36:08;14.45;;;5.70;;
25083;SDS011;13075;55.682;37.564;2023-02-11T02:38:51;9.97;;;4.27;;
25083;SDS011;13075;55.682;37.564;2023-02-11T02:41:23;16.02;;;6.43;;
25083;SDS011;13075;55.682;37.564;2023-02-11T02:43:54;20.85;;;6.45;;
25083;SDS011;13075;55.682;37.564;2023-02-11T02:48:50;11.15;;;4.75;;
25083;SDS011;13075;55.682;37.564;2023-02-11T03:08:11;12.95;;;4.95;;
25083;SDS011;13075;55.682;37.564;2023-02-11T03:10:48;15.10;;;5.78;;
25083;SDS011;13075;55.682;37.564;2023-02-11T03:13:17;11.18;;;4.28;;
25083;SDS011;13075;55.682;37.564;2023-02-11T03:15:47;7.88;;;4.45;;
25083;SDS011;13075;55.682;37.564;2023-02-11T03:18:16;10.30;;;4.30;;
25083;SDS011;13075;55.682;37.564;2023-02-11T03:20:48;8.60;;;4.32;;
25083;SDS011;13075;55.682;37.564;2023-02-11T03:23:22;9.45;;;4.30;;
25083;SDS011;13075;55.682;37.564;2023-02-11T03:25:57;7.20;;;4.78;;
25083;SDS011;13075;55.682;37.564;2023-02-11T03:31:16;13.65;;;5.20;;
25083;SDS011;13075;55.682;37.564;2023-02-11T03:36:50;12.30;;;4.38;;
25083;SDS011;13075;55.682;37.564;2023-02-11T03:39:41;12.45;;;4.90;;
25083;SDS011;13075;55.682;37.564;2023-02-11T03:42:11;7.53;;;4.03;;
25083;SDS011;13075;55.682;37.564;2023-02-11T03:44:39;15.88;;;5.55;;
25083;SDS011;13075;55.682;37.564;2023-02-11T03:47:10;16.58;;;4.65;;
25083;SDS011;13075;55.682;37.564;2023-02-11T03:49:38;12.00;;;4.82;;
25083;SDS011;13075;55.682;37.564;2023-02-11T03:52:07;14.65;;;5.47;;
25083;SDS011;13075;55.682;37.564;2023-02-11T03:54:35;16.02;;;5.57;;
25083;SDS011;13075;55.682;37.564;2023-02-11T03:57:05;17.83;;;4.82;;
25083;SDS011;13075;55.682;37.564;2023-02-11T03:59:31;12.48;;;5.18;;
25083;SDS011;13075;55.682;37.564;2023-02-11T04:02:17;9.93;;;4.97;;
25083;SDS011;13075;55.682;37.564;2023-02-11T04:04:43;12.98;;;5.43;;
25083;SDS011;13075;55.682;37.564;2023-02-11T04:07:10;14.70;;;5.15;;
25083;SDS011;13075;55.682;37.564;2023-02-11T04:09:37;12.18;;;4.30;;
25083;SDS011;13075;55.682;37.564;2023-02-11T04:12:02;13.23;;;4.82;;
25083;SDS011;13075;55.682;37.564;2023-02-11T04:14:28;14.98;;;4.90;;
25083;SDS011;13075;55.682;37.564;2023-02-11T04:16:54;12.40;;;5.70;;
25083;SDS011;13075;55.682;37.564;2023-02-11T04:19:19;13.85;;;4.65;;
25083;SDS011;13075;55.682;37.564;2023-02-11T04:21:45;9.80;;;4.00;;
25083;SDS011;13075;55.682;37.564;2023-02-11T04:24:11;10.10;;;4.00;;
25083;SDS011;13075;55.682;37.564;2023-02-11T04:26:37;11.10;;;4.00;;
25083;SDS011;13075;55.682;37.564;2023-02-11T04:29:02;10.07;;;3.90;;
25083;SDS011;13075;55.682;37.564;2023-02-11T04:31:28;11.63;;;4.43;;
25083;SDS011;13075;55.682;37.564;2023-02-11T04:33:53;10.25;;;4.15;;
25083;SDS011;13075;55.682;37.564;2023-02-11T04:36:19;11.18;;;4.90;;
25083;SDS011;13075;55.682;37.564;2023-02-11T04:38:44;10.15;;;3.95;;
25083;SDS011;13075;55.682;37.564;2023-02-11T04:41:10;6.57;;;3.58;;
25083;SDS011;13075;55.682;37.564;2023-02-11T04:43:35;12.18;;;3.97;;
25083;SDS011;13075;55.682;37.564;2023-02-11T04:46:01;8.40;;;3.45;;
25083;SDS011;13075;55.682;37.564;2023-02-11T04:48:27;7.75;;;3.65;;
25083;SDS011;13075;55.682;37.564;2023-02-11T04:50:52;8.98;;;3.58;;
25083;SDS011;13075;55.682;37.564;2023-02-11T04:53:18;7.50;;;3.17;;
25083;SDS011;13075;55.682;37.564;2023-02-11T04:55:43;9.82;;;3.70;;
25083;SDS011;13075;55.682;37.564;2023-02-11T04:58:09;12.13;;;3.58;;
25083;SDS011;13075;55.682;37.564;2023-02-11T05:00:34;8.07;;;3.50;;
25083;SDS011;13075;55.682;37.564;2023-02-11T05:03:00;9.57;;;3.08;;
25083;SDS011;13075;55.682;37.564;2023-02-11T05:05:26;9.75;;;3.63;;
25083;SDS011;13075;55.682;37.564;2023-02-11T05:07:51;10.98;;;3.22;;
25083;SDS011;13075;55.682;37.564;2023-02-11T05:10:17;6.82;;;2.70;;
25083;SDS011;13075;55.682;37.564;2023-02-11T05:12:42;6.93;;;3.22;;
25083;SDS011;13075;55.682;37.564;2023-02-11T05:15:08;10.98;;;3.10;;
25083;SDS011;13075;55.682;37.564;2023-02-11T05:17:34;9.90;;;3.05;;
25083;SDS011;13075;55.682;37.564;2023-02-11T05:19:59;5.93;;;3.00;;
25083;SDS011;13075;55.682;37.564;2023-02-11T05:22:25;7.40;;;3.88;;
25083;SDS011;13075;55.682;37.564;2023-02-11T05:24:50;16.15;;;4.40;;
25083;SDS011;13075;55.682;37.564;2023-02-11T05:27:16;6.30;;;2.97;;
25083;SDS011;13075;55.682;37.564;2023-02-11T05:29:41;9.77;;;3.58;;
25083;SDS011;13075;55.682;37.564;2023-02-11T05:32:07;9.32;;;3.92;;
25083;SDS011;13075;55.682;37.564;2023-02-11T05:34:33;9.35;;;3.45;;
25083;SDS011;13075;55.682;37.564;2023-02-11T05:37:00;10.10;;;3.70;;
25083;SDS011;13075;55.682;37.564;2023-02-11T05:39:25;10.68;;;3.83;;
25083;SDS011;13075;55.682;37.564;2023-02-11T05:41:51;10.10;;;4.30;;
25083;SDS011;13075;55.682;37.564;2023-02-11T05:44:16;13.45;;;3.72;;
25083;SDS011;13075;55.682;37.564;2023-02-11T05:46:42;10.63;;;4.50;;
25083;SDS011;13075;55.682;37.564;2023-02-11T05:49:07;5.65;;;3.38;;
25083;SDS011;13075;55.682;37.564;2023-02-11T05:51:33;7.22;;;4.07;;
25083;SDS011;13075;55.682;37.564;2023-02-11T05:53:59;10.98;;;3.40;;
25083;SDS011;13075;55.682;37.564;2023-02-11T05:56:24;6.32;;;3.88;;
25083;SDS011;13075;55.682;37.564;2023-02-11T05:58:50;12.75;;;4.32;;
25083;SDS011;13075;55.682;37.564;2023-02-11T06:01:15;12.35;;;4.38;;
25083;SDS011;13075;55.682;37.564;2023-02-11T06:03:41;12.90;;;5.03;;
25083;SDS011;13075;55.682;37.564;2023-02-11T06:06:10;9.23;;;4.35;;
25083;SDS011;13075;55.682;37.564;2023-02-11T06:08:37;14.50;;;5.00;;
25083;SDS011;13075;55.682;37.564;2023-02-11T06:11:03;8.10;;;5.15;;
25083;SDS011;13075;55.682;37.564;2023-02-11T06:13:29;11.25;;;5.35;;
25083;SDS011;13075;55.682;37.564;2023-02-11T06:15:58;12.45;;;4.45;;
25083;SDS011;13075;55.682;37.564;2023-02-11T06:18:24;17.55;;;5.70;;
25083;SDS011;13075;55.682;37.564;2023-02-11T06:20:50;18.25;;;5.35;;
25083;SDS011;13075;55.682;37.564;2023-02-11T06:23:16;11.88;;;5.75;;
25083;SDS011;13075;55.682;37.564;2023-02-11T06:25:41;9.60;;;5.15;;
25083;SDS011;13075;55.682;37.564;2023-02-11T06:28:07;10.95;;;5.78;;
25083;SDS011;13075;55.682;37.564;2023-02-11T06:30:37;13.30;;;5.32;;
25083;SDS011;13075;55.682;37.564;2023-02-11T06:33:03;9.57;;;5.03;;
25083;SDS011;13075;55.682;37.564;2023-02-11T06:35:29;7.18;;;4.50;;
25083;SDS011;13075;55.682;37.564;2023-02-11T06:37:54;9.93;;;5.43;;
25083;SDS011;13075;55.682;37.564;2023-02-11T06:40:20;12.52;;;4.47;;
25083;SDS011;13075;55.682;37.564;2023-02-11T06:42:45;11.07;;;5.03;;
25083;SDS011;13075;55.682;37.564;2023-02-11T06:45:11;12.43;;;4.85;;
25083;SDS011;13075;55.682;37.564;2023-02-11T06:47:38;9.70;;;4.93;;
25083;SDS011;13075;55.682;37.564;2023-02-11T06:50:04;20.17;;;5.75;;
25083;SDS011;13075;55.682;37.564;2023-02-11T06:52:31;12.45;;;5.00;;
25083;SDS011;13075;55.682;37.564;2023-02-11T06:54:57;13.45;;;4.88;;
25083;SDS011;13075;55.682;37.564;2023-02-11T06:57:23;12.70;;;5.30;;
25083;SDS011;13075;55.682;37.564;2023-02-11T06:59:49;13.20;;;5.30;;
25083;SDS011;13075;55.682;37.564;2023-02-11T07:02:14;10.43;;;5.03;;
25083;SDS011;13075;55.682;37.564;2023-02-11T07:04:40;11.63;;;5.28;;
25083;SDS011;13075;55.682;37.564;2023-02-11T07:07:06;14.23;;;6.82;;
25083;SDS011;13075;55.682;37.564;2023-02-11T07:09:31;13.05;;;4.93;;
25083;SDS011;13075;55.682;37.564;2023-02-11T07:11:57;10.70;;;5.32;;
25083;SDS011;13075;55.682;37.564;2023-02-11T07:14:22;13.00;;;4.75;;
25083;SDS011;13075;55.682;37.564;2023-02-11T07:16:48;13.25;;;5.32;;
25083;SDS011;13075;55.682;37.564;2023-02-11T07:19:14;12.30;;;5.43;;
25083;SDS011;13075;55.682;37.564;2023-02-11T07:21:39;11.90;;;4.90;;
25083;SDS011;13075;55.682;37.564;2023-02-11T07:24:06;13.05;;;5.30;;
25083;SDS011;13075;55.682;37.564;2023-02-11T07:26:32;12.27;;;5.35;;
25083;SDS011;13075;55.682;37.564;2023-02-11T07:28:58;14.70;;;6.13;;
25083;SDS011;13075;55.682;37.564;2023-02-11T07:31:25;14.63;;;5.95;;
25083;SDS011;13075;55.682;37.564;2023-02-11T07:33:52;17.98;;;5.18;;
25083;SDS011;13075;55.682;37.564;2023-02-11T07:36:20;13.60;;;6.10;;
25083;SDS011;13075;55.682;37.564;2023-02-11T07:38:47;13.35;;;5.65;;
25083;SDS011;13075;55.682;37.564;2023-02-11T07:41:14;14.88;;;6.35;;
25083;SDS011;13075;55.682;37.564;2023-02-11T07:43:41;11.02;;;7.05;;
25083;SDS011;13075;55.682;37.564;2023-02-11T07:46:15;13.32;;;5.65;;
25083;SDS011;13075;55.682;37.564;2023-02-11T07:48:47;21.63;;;6.78;;
25083;SDS011;13075;55.682;37.564;2023-02-11T07:51:18;15.30;;;7.20;;
25083;SDS011;13075;55.682;37.564;2023-02-11T07:53:54;14.65;;;6.82;;
25083;SDS011;13075;55.682;37.564;2023-02-11T07:56:22;16.48;;;6.97;;
25083;SDS011;13075;55.682;37.564;2023-02-11T07:58:48;10.05;;;6.03;;
25083;SDS011;13075;55.682;37.564;2023-02-11T08:01:16;17.27;;;6.30;;
25083;SDS011;13075;55.682;37.564;2023-02-11T08:03:46;11.10;;;6.07;;
25083;SDS011;13075;55.682;37.564;2023-02-11T08:06:13;13.38;;;5.60;;
25083;SDS011;13075;55.682;37.564;2023-02-11T08:08:40;16.27;;;7.30;;
25083;SDS011;13075;55.682;37.564;2023-02-11T08:11:25;13.15;;;6.32;;
25083;SDS011;13075;55.682;37.564;2023-02-11T08:13:53;16.50;;;6.85;;
25083;SDS011;13075;55.682;37.564;2023-02-11T08:16:24;14.25;;;7.53;;
25083;SDS011;13075;55.682;37.564;2023-02-11T08:18:51;14.50;;;6.35;;
25083;SDS011;13075;55.682;37.564;2023-02-11T08:21:18;13.70;;;6.10;;
25083;SDS011;13075;55.682;37.564;2023-02-11T08:23:44;12.55;;;6.70;;
25083;SDS011;13075;55.682;37.564;2023-02-11T08:26:13;11.07;;;6.30;;
25083;SDS011;13075;55.682;37.564;2023-02-11T08:28:41;13.65;;;7.05;;
25083;SDS011;13075;55.682;37.564;2023-02-11T08:31:12;14.70;;;6.70;;
25083;SDS011;13075;55.682;37.564;2023-02-11T08:33:43;13.20;;;6.45;;
25083;SDS011;13075;55.682;37.564;2023-02-11T08:36:13;14.77;;;7.20;;
25083;SDS011;13075;55.682;37.564;2023-02-11T08:38:42;14.70;;;6.90;;
25083;SDS011;13075;55.682;37.564;2023-02-11T08:41:08;21.75;;;6.60;;
25083;SDS011;13075;55.682;37.564;2023-02-11T08:43:34;15.38;;;6.05;;
25083;SDS011;13075;55.682;37.564;2023-02-11T08:46:00;14.70;;;7.22;;
25083;SDS011;13075;55.682;37.564;2023-02-11T08:48:27;16.20;;;6.03;;
25083;SDS011;13075;55.682;37.564;2023-02-11T08:50:53;10.40;;;5.82;;
25083;SDS011;13075;55.682;37.564;2023-02-11T08:53:20;16.02;;;6.63;;
25083;SDS011;13075;55.682;37.564;2023-02-11T08:55:52;16.17;;;6.57;;
25083;SDS011;13075;55.682;37.564;2023-02-11T08:58:19;12.93;;;5.70;;
25083;SDS011;13075;55.682;37.564;2023-02-11T09:00:46;15.40;;;5.93;;
25083;SDS011;13075;55.682;37.564;2023-02-11T09:03:13;11.27;;;5.88;;
25083;SDS011;13075;55.682;37.564;2023-02-11T09:05:43;10.98;;;5.53;;
25083;SDS011;13075;55.682;37.564;2023-02-11T09:08:11;11.70;;;5.30;;
25083;SDS011;13075;55.682;37.564;2023-02-11T09:10:37;16.98;;;6.30;;
25083;SDS011;13075;55.682;37.564;2023-02-11T09:13:03;14.23;;;5.68;;
25083;SDS011;13075;55.682;37.564;2023-02-11T09:15:29;15.80;;;6.40;;
25083;SDS011;13075;55.682;37.564;2023-02-11T09:17:55;26.23;;;7.03;;
25083;SDS011;13075;55.682;37.564;2023-02-11T09:20:21;11.88;;;6.28;;
25083;SDS011;13075;55.682;37.564;2023-02-11T09:22:47;18.00;;;7.28;;
25083;SDS011;13075;55.682;37.564;2023-02-11T09:25:12;14.45;;;6.22;;
25083;SDS011;13075;55.682;37.564;2023-02-11T09:27:38;19.70;;;7.75;;
25083;SDS011;13075;55.682;37.564;2023-02-11T09:30:04;12.32;;;6.38;;
25083;SDS011;13075;55.682;37.564;2023-02-11T09:32:30;12.88;;;6.45;;
25083;SDS011;13075;55.682;37.564;2023-02-11T09:34:55;18.90;;;6.25;;
25083;SDS011;13075;55.682;37.564;2023-02-11T09:37:21;13.18;;;5.53;;
25083;SDS011;13075;55.682;37.564;2023-02-11T09:39:46;8.52;;;4.90;;
25083;SDS011;13075;55.682;37.564;2023-02-11T09:45:09;11.77;;;5.45;;
25083;SDS011;13075;55.682;37.564;2023-02-11T09:48:14;7.50;;;3.85;;
25083;SDS011;13075;55.682;37.564;2023-02-11T09:50:42;12.98;;;6.18;;
25083;SDS011;13075;55.682;37.564;2023-02-11T09:56:11;16.90;;;6.60;;
25083;SDS011;13075;55.682;37.564;2023-02-11T09:58:39;12.57;;;5.57;;
25083;SDS011;13075;55.682;37.564;2023-02-11T10:04:06;11.00;;;5.57;;
25083;SDS011;13075;55.682;37.564;2023-02-11T10:06:54;15.40;;;6.22;;
25083;SDS011;13075;55.682;37.564;2023-02-11T10:12:23;15.23;;;5.68;;
25083;SDS011;13075;55.682;37.564;2023-02-11T10:22:56;15.23;;;6.38;;
25083;SDS011;13075;55.682;37.564;2023-02-11T10:25:26;16.20;;;6.55;;
25083;SDS011;13075;55.682;37.564;2023-02-11T10:27:54;13.25;;;5.90;;
25083;SDS011;13075;55.682;37.564;2023-02-11T10:30:36;19.42;;;6.68;;
25083;SDS011;13075;55.682;37.564;2023-02-11T10:35:51;15.80;;;6.80;;
25083;SDS011;13075;55.682;37.564;2023-02-11T10:38:17;20.98;;;5.45;;
25083;SDS011;13075;55.682;37.564;2023-02-11T10:40:43;15.30;;;7.05;;
25083;SDS011;13075;55.682;37.564;2023-02-11T10:43:12;11.75;;;6.22;;
25083;SDS011;13075;55.682;37.564;2023-02-11T10:45:46;21.60;;;8.00;;
25083;SDS011;13075;55.682;37.564;2023-02-11T10:51:15;13.85;;;6.45;;
25083;SDS011;13075;55.682;37.564;2023-02-11T10:53:43;14.57;;;7.07;;
25083;SDS011;13075;55.682;37.564;2023-02-11T10:56:10;16.13;;;6.53;;
25083;SDS011;13075;55.682;37.564;2023-02-11T10:58:45;16.13;;;6.35;;
25083;SDS011;13075;55.682;37.564;2023-02-11T11:01:21;16.45;;;7.07;;
25083;SDS011;13075;55.682;37.564;2023-02-11T11:03:48;14.63;;;8.10;;
25083;SDS011;13075;55.682;37.564;2023-02-11T11:06:15;20.13;;;8.10;;
25083;SDS011;13075;55.682;37.564;2023-02-11T11:08:54;11.23;;;6.57;;
25083;SDS011;13075;55.682;37.564;2023-02-11T11:11:21;20.63;;;7.57;;
25083;SDS011;13075;55.682;37.564;2023-02-11T11:16:24;20.40;;;9.07;;
25083;SDS011;13075;55.682;37.564;2023-02-11T11:29:18;20.88;;;8.70;;
25083;SDS011;13075;55.682;37.564;2023-02-11T11:31:53;17.83;;;9.27;;
25083;SDS011;13075;55.682;37.564;2023-02-11T11:36:52;17.20;;;8.82;;
25083;SDS011;13075;55.682;37.564;2023-02-11T11:39:21;18.15;;;8.90;;
25083;SDS011;13075;55.682;37.564;2023-02-11T11:42:36;22.27;;;9.05;;
25083;SDS011;13075;55.682;37.564;2023-02-11T11:44:55;16.65;;;7.97;;
25083;SDS011;13075;55.682;37.564;2023-02-11T11:47:27;22.20;;;9.82;;
25083;SDS011;13075;55.682;37.564;2023-02-11T11:55:19;16.90;;;8.52;;
25083;SDS011;13075;55.682;37.564;2023-02-11T11:57:48;19.75;;;8.90;;
25083;SDS011;13075;55.682;37.564;2023-02-11T12:15:10;23.42;;;9.18;;
25083;SDS011;13075;55.682;37.564;2023-02-11T12:26:03;21.38;;;9.43;;
25083;SDS011;13075;55.682;37.564;2023-02-11T12:37:13;22.65;;;9.35;;
25083;SDS011;13075;55.682;37.564;2023-02-11T12:39:49;23.25;;;10.43;;
25083;SDS011;13075;55.682;37.564;2023-02-11T12:42:33;23.05;;;9.85;;
25083;SDS011;13075;55.682;37.564;2023-02-11T12:45:59;21.45;;;8.43;;
25083;SDS011;13075;55.682;37.564;2023-02-11T12:51:29;20.80;;;9.55;;
25083;SDS011;13075;55.682;37.564;2023-02-11T13:05:27;21.55;;;8.90;;
25083;SDS011;13075;55.682;37.564;2023-02-11T13:08:14;22.73;;;9.85;;
25083;SDS011;13075;55.682;37.564;2023-02-11T13:10:41;25.35;;;9.02;;
25083;SDS011;13075;55.682;37.564;2023-02-11T13:13:56;21.75;;;9.80;;
25083;SDS011;13075;55.682;37.564;2023-02-11T13:17:00;24.17;;;9.20;;
25083;SDS011;13075;55.682;37.564;2023-02-11T13:35:37;19.25;;;8.80;;
25083;SDS011;13075;55.682;37.564;2023-02-11T13:38:18;21.35;;;8.73;;
25083;SDS011;13075;55.682;37.564;2023-02-11T13:43:46;19.23;;;8.13;;
25083;SDS011;13075;55.682;37.564;2023-02-11T13:46:24;30.02;;;12.48;;
25083;SDS011;13075;55.682;37.564;2023-02-11T13:48:53;28.27;;;10.02;;
25083;SDS011;13075;55.682;37.564;2023-02-11T13:51:33;18.60;;;9.55;;
25083;SDS011;13075;55.682;37.564;2023-02-11T13:53:59;22.73;;;9.32;;
25083;SDS011;13075;55.682;37.564;2023-02-11T13:56:32;26.80;;;9.38;;
25083;SDS011;13075;55.682;37.564;2023-02-11T14:11:06;23.70;;;9.48;;
25083;SDS011;13075;55.682;37.564;2023-02-11T14:16:20;26.52;;;9.23;;
25083;SDS011;13075;55.682;37.564;2023-02-11T14:29:16;24.67;;;9.45;;
25083;SDS011;13075;55.682;37.564;2023-02-11T14:43:16;33.67;;;9.38;;
25083;SDS011;13075;55.682;37.564;2023-02-11T14:45:47;25.33;;;9.02;;
25083;SDS011;13075;55.682;37.564;2023-02-11T14:48:16;29.38;;;10.38;;
25083;SDS011;13075;55.682;37.564;2023-02-11T14:50:53;22.25;;;9.40;;
25083;SDS011;13075;55.682;37.564;2023-02-11T14:53:34;22.38;;;8.63;;
25083;SDS011;13075;55.682;37.564;2023-02-11T14:56:01;25.10;;;8.73;;
25083;SDS011;13075;55.682;37.564;2023-02-11T14:58:31;19.20;;;8.80;;
25083;SDS011;13075;55.682;37.564;2023-02-11T15:01:04;25.92;;;10.10;;
25083;SDS011;13075;55.682;37.564;2023-02-11T15:03:47;25.98;;;9.18;;
25083;SDS011;13075;55.682;37.564;2023-02-11T15:06:20;26.30;;;10.32;;
25083;SDS011;13075;55.682;37.564;2023-02-11T15:11:33;19.42;;;9.20;;
25083;SDS011;13075;55.682;37.564;2023-02-11T15:14:46;26.35;;;9.70;;
25083;SDS011;13075;55.682;37.564;2023-02-11T15:16:58;24.25;;;9.57;;
25083;SDS011;13075;55.682;37.564;2023-02-11T15:19:28;19.67;;;8.60;;
25083;SDS011;13075;55.682;37.564;2023-02-11T15:21:57;25.00;;;8.63;;
25083;SDS011;13075;55.682;37.564;2023-02-11T15:27:03;24.00;;;9.55;;
25083;SDS011;13075;55.682;37.564;2023-02-11T15:29:47;27.45;;;11.55;;
25083;SDS011;13075;55.682;37.564;2023-02-11T15:32:19;26.70;;;9.07;;
25083;SDS011;13075;55.682;37.564;2023-02-11T15:34:47;28.38;;;9.98;;
25083;SDS011;13075;55.682;37.564;2023-02-11T15:37:19;20.42;;;9.45;;
25083;SDS011;13075;55.682;37.564;2023-02-11T15:39:45;26.95;;;9.27;;
25083;SDS011;13075;55.682;37.564;2023-02-11T15:45:37;30.13;;;10.23;;
25083;SDS011;13075;55.682;37.564;2023-02-11T15:47:50;30.88;;;9.70;;
25083;SDS011;13075;55.682;37.564;2023-02-11T15:52:58;27.13;;;9.25;;
25083;SDS011;13075;55.682;37.564;2023-02-11T15:55:26;25.83;;;9.20;;
25083;SDS011;13075;55.682;37.564;2023-02-11T15:57:58;21.10;;;8.63;;
25083;SDS011;13075;55.682;37.564;2023-02-11T16:00:35;19.17;;;8.27;;
25083;SDS011;13075;55.682;37.564;2023-02-11T16:03:23;33.80;;;10.45;;
25083;SDS011;13075;55.682;37.564;2023-02-11T16:05:53;24.67;;;10.55;;
25083;SDS011;13075;55.682;37.564;2023-02-11T16:08:22;21.58;;;10.10;;
25083;SDS011;13075;55.682;37.564;2023-02-11T16:10:55;30.08;;;10.25;;
25083;SDS011;13075;55.682;37.564;2023-02-11T16:13:28;23.33;;;10.13;;
25083;SDS011;13075;55.682;37.564;2023-02-11T16:16:02;22.70;;;7.95;;
25083;SDS011;13075;55.682;37.564;2023-02-11T16:20:55;22.60;;;7.53;;
25083;SDS011;13075;55.682;37.564;2023-02-11T16:23:24;26.30;;;8.88;;
25083;SDS011;13075;55.682;37.564;2023-02-11T16:25:57;27.40;;;9.13;;
25083;SDS011;13075;55.682;37.564;2023-02-11T16:28:31;20.52;;;9.95;;
25083;SDS011;13075;55.682;37.564;2023-02-11T16:30:57;18.08;;;8.88;;
25083;SDS011;13075;55.682;37.564;2023-02-11T16:33:23;27.70;;;8.48;;
25083;SDS011;13075;55.682;37.564;2023-02-11T16:35:49;24.00;;;10.27;;
25083;SDS011;13075;55.682;37.564;2023-02-11T16:38:15;17.27;;;8.27;;
25083;SDS011;13075;55.682;37.564;2023-02-11T16:40:42;29.67;;;9.63;;
25083;SDS011;13075;55.682;37.564;2023-02-11T16:43:10;30.10;;;10.73;;
25083;SDS011;13075;55.682;37.564;2023-02-11T16:45:36;23.20;;;10.40;;
25083;SDS011;13075;55.682;37.564;2023-02-11T16:48:06;22.88;;;9.13;;
25083;SDS011;13075;55.682;37.564;2023-02-11T16:50:33;25.20;;;9.95;;
25083;SDS011;13075;55.682;37.564;2023-02-11T16:52:59;25.08;;;9.23;;
25083;SDS011;13075;55.682;37.564;2023-02-11T16:55:30;21.83;;;10.05;;
25083;SDS011;13075;55.682;37.564;2023-02-11T16:57:57;17.63;;;8.60;;
25083;SDS011;13075;55.682;37.564;2023-02-11T17:00:23;30.58;;;9.10;;
25083;SDS011;13075;55.682;37.564;2023-02-11T17:02:49;23.50;;;9.38;;
25083;SDS011;13075;55.682;37.564;2023-02-11T17:05:16;22.40;;;9.85;;
25083;SDS011;13075;55.682;37.564;2023-02-11T17:07:44;17.27;;;8.73;;
25083;SDS011;13075;55.682;37.564;2023-02-11T17:10:14;16.85;;;9.35;;
25083;SDS011;13075;55.682;37.564;2023-02-11T17:12:41;18.35;;;9.48;;
25083;SDS011;13075;55.682;37.564;2023-02-11T17:15:07;20.77;;;8.07;;
25083;SDS011;13075;55.682;37.564;2023-02-11T17:17:33;20.30;;;8.13;;
25083;SDS011;13075;55.682;37.564;2023-02-11T17:19:59;20.25;;;8.10;;
25083;SDS011;13075;55.682;37.564;2023-02-11T17:22:25;30.90;;;8.77;;
25083;SDS011;13075;55.682;37.564;2023-02-11T17:24:50;18.42;;;9.18;;
25083;SDS011;13075;55.682;37.564;2023-02-11T17:27:16;17.23;;;7.40;;
25083;SDS011;13075;55.682;37.564;2023-02-11T17:29:41;18.98;;;10.20;;
25083;SDS011;13075;55.682;37.564;2023-02-11T17:32:07;22.58;;;9.02;;
25083;SDS011;13075;55.682;37.564;2023-02-11T17:34:33;20.75;;;8.98;;
25083;SDS011;13075;55.682;37.564;2023-02-11T17:36:59;17.75;;;9.35;;
25083;SDS011;13075;55.682;37.564;2023-02-11T17:39:27;20.33;;;8.82;;
25083;SDS011;13075;55.682;37.564;2023-02-11T17:41:52;18.05;;;7.70;;
25083;SDS011;13075;55.682;37.564;2023-02-11T17:44:18;24.58;;;9.05;;
25083;SDS011;13075;55.682;37.564;2023-02-11T17:46:44;21.88;;;9.48;;
25083;SDS011;13075;55.682;37.564;2023-02-11T17:49:10;18.88;;;7.88;;
25083;SDS011;13075;55.682;37.564;2023-02-11T17:51:37;21.17;;;9.43;;
25083;SDS011;13075;55.682;37.564;2023-02-11T17:54:13;22.90;;;9.00;;
25083;SDS011;13075;55.682;37.564;2023-02-11T17:56:41;16.45;;;8.50;;
25083;SDS011;13075;55.682;37.564;2023-02-11T17:59:08;19.85;;;8.50;;
25083;SDS011;13075;55.682;37.564;2023-02-11T18:01:36;20.92;;;8.40;;